Time,TemperatureF,DewpointF,PressureIn,WindDirection,WindDirectionDegrees,WindSpeedMPH,WindSpeedGustMPH,Humidity,HourlyPrecipIn,Conditions,Clouds,dailyrainin,SoftwareType,DateUTC
2013-01-29 00:09:00,42.9,33.0,29.74,NNW,340,11.0,14.0,69,0.00,,,0.00,weatherlink.com 1.10,2013-01-29 07:09:00,
2013-01-29 00:24:00,42.0,33.0,29.74,NNW,336,5.0,18.0,70,0.00,,,0.00,weatherlink.com 1.10,2013-01-29 07:24:00,
2013-01-29 00:39:00,41.3,32.0,29.74,NW,310,7.0,17.0,70,0.00,,,0.00,weatherlink.com 1.10,2013-01-29 07:39:00,
2013-01-29 00:54:00,41.0,32.0,29.74,NNW,332,7.0,14.0,70,0.00,,,0.00,weatherlink.com 1.10,2013-01-29 07:54:00,
2013-01-29 01:09:00,40.6,32.0,29.74,NW,304,14.0,14.0,70,0.00,,,0.00,weatherlink.com 1.10,2013-01-29 08:09:00,
2013-01-29 01:24:00,40.6,32.0,29.75,WNW,295,6.0,13.0,70,0.00,,,0.00,weatherlink.com 1.10,2013-01-29 08:24:00,
2013-01-29 01:39:00,40.3,32.0,29.74,NNW,345,4.0,15.0,71,0.00,,,0.00,weatherlink.com 1.10,2013-01-29 08:39:00,
2013-01-29 01:54:00,40.1,31.0,29.74,West,278,11.0,21.0,71,0.00,,,0.00,weatherlink.com 1.10,2013-01-29 08:54:00,
2013-01-29 02:09:00,39.7,31.0,29.75,WNW,282,12.0,24.0,72,0.00,,,0.00,weatherlink.com 1.10,2013-01-29 09:09:00,
2013-01-29 02:24:00,38.5,31.0,29.76,WNW,287,15.0,19.0,73,0.00,,,0.00,weatherlink.com 1.10,2013-01-29 09:24:00,
2013-01-29 02:39:00,37.5,31.0,29.77,WNW,301,6.0,15.0,76,0.00,,,0.00,weatherlink.com 1.10,2013-01-29 09:39:00,
2013-01-29 02:54:00,37.3,30.0,29.77,WNW,291,10.0,21.0,76,0.00,,,0.00,weatherlink.com 1.10,2013-01-29 09:54:00,
2013-01-29 03:10:00,37.5,30.0,29.77,WSW,253,6.0,16.0,73,0.00,,,0.00,weatherlink.com 1.10,2013-01-29 10:10:00,
2013-01-29 03:25:00,38.1,29.0,29.77,WNW,293,5.0,13.0,70,0.00,,,0.00,weatherlink.com 1.10,2013-01-29 10:25:00,
2013-01-29 03:40:00,37.6,29.0,29.77,West,275,4.0,15.0,70,0.00,,,0.00,weatherlink.com 1.10,2013-01-29 10:40:00,
2013-01-29 03:55:00,36.9,29.0,29.77,NW,309,4.0,11.0,73,0.00,,,0.00,weatherlink.com 1.10,2013-01-29 10:55:00,
2013-01-29 04:10:00,36.7,29.0,29.76,North,358,5.0,12.0,73,0.00,,,0.00,weatherlink.com 1.10,2013-01-29 11:10:00,
2013-01-29 04:25:00,35.5,29.0,29.76,NNW,330,10.0,11.0,76,0.00,,,0.00,weatherlink.com 1.10,2013-01-29 11:25:00,
2013-01-29 04:40:00,35.4,29.0,29.74,NW,326,10.0,12.0,76,0.00,,,0.00,weatherlink.com 1.10,2013-01-29 11:40:00,
2013-01-29 04:55:00,35.6,28.0,29.74,WNW,303,8.0,14.0,74,0.00,,,0.00,weatherlink.com 1.10,2013-01-29 11:55:00,
2013-01-29 05:10:00,35.5,28.0,29.76,WNW,285,5.0,11.0,74,0.00,,,0.00,weatherlink.com 1.10,2013-01-29 12:10:00,
2013-01-29 05:25:00,35.5,28.0,29.77,WNW,296,4.0,12.0,73,0.00,,,0.00,weatherlink.com 1.10,2013-01-29 12:25:00,
2013-01-29 05:40:00,35.5,28.0,29.75,North,1,4.0,13.0,73,0.00,,,0.00,weatherlink.com 1.10,2013-01-29 12:40:00,
2013-01-29 05:55:00,35.5,27.0,29.77,WNW,296,8.0,11.0,72,0.00,,,0.00,weatherlink.com 1.10,2013-01-29 12:55:00,
2013-01-29 06:10:00,35.5,27.0,29.77,WNW,297,3.0,11.0,71,0.00,,,0.00,weatherlink.com 1.10,2013-01-29 13:10:00,
2013-01-29 06:25:00,35.4,26.0,29.77,WNW,286,4.0,10.0,69,0.00,,,0.00,weatherlink.com 1.10,2013-01-29 13:25:00,
2013-01-29 06:40:00,35.5,26.0,29.79,WNW,293,8.0,13.0,68,0.00,,,0.00,weatherlink.com 1.10,2013-01-29 13:40:00,
2013-01-29 06:55:00,35.5,25.0,29.79,WNW,303,7.0,12.0,67,0.00,,,0.00,weatherlink.com 1.10,2013-01-29 13:55:00,
2013-01-29 07:10:00,35.2,24.0,29.79,WNW,303,4.0,15.0,65,0.00,,,0.00,weatherlink.com 1.10,2013-01-29 14:10:00,
2013-01-29 07:25:00,34.9,25.0,29.80,WNW,288,3.0,14.0,67,0.00,,,0.00,weatherlink.com 1.10,2013-01-29 14:25:00,
2013-01-29 07:40:00,34.2,26.0,29.80,WNW,295,4.0,12.0,71,0.00,,,0.00,weatherlink.com 1.10,2013-01-29 14:40:00,
2013-01-29 07:55:00,33.8,26.0,29.81,WNW,297,6.0,11.0,74,0.00,,,0.00,weatherlink.com 1.10,2013-01-29 14:55:00,
2013-01-29 08:10:00,33.6,27.0,29.81,WNW,284,4.0,12.0,78,0.00,,,0.00,weatherlink.com 1.10,2013-01-29 15:10:00,
2013-01-29 08:25:00,33.8,28.0,29.82,NW,307,4.0,9.0,78,0.00,,,0.00,weatherlink.com 1.10,2013-01-29 15:25:00,
2013-01-29 08:40:00,33.9,28.0,29.83,WNW,284,4.0,11.0,78,0.00,,,0.00,weatherlink.com 1.10,2013-01-29 15:40:00,
2013-01-29 08:55:00,34.0,28.0,29.83,WNW,293,4.0,13.0,79,0.00,,,0.00,weatherlink.com 1.10,2013-01-29 15:55:00,
2013-01-29 09:10:00,34.5,28.0,29.83,WNW,290,2.0,9.0,76,0.00,,,0.00,weatherlink.com 1.10,2013-01-29 16:10:00,
2013-01-29 09:25:00,34.5,26.0,29.84,WNW,287,9.0,17.0,71,0.00,,,0.00,weatherlink.com 1.10,2013-01-29 16:25:00,
2013-01-29 09:40:00,34.6,25.0,29.84,WSW,255,13.0,15.0,67,0.00,,,0.00,weatherlink.com 1.10,2013-01-29 16:40:00,
2013-01-29 09:55:00,34.8,25.0,29.84,West,262,8.0,16.0,68,0.00,,,0.00,weatherlink.com 1.10,2013-01-29 16:55:00,
2013-01-29 10:10:00,34.8,27.0,29.84,West,277,12.0,17.0,72,0.00,,,0.00,weatherlink.com 1.10,2013-01-29 17:10:00,
2013-01-29 10:26:00,36.1,24.0,29.85,WNW,301,7.0,18.0,63,0.00,,,0.00,weatherlink.com 1.10,2013-01-29 17:26:00,
2013-01-29 10:40:00,35.8,23.0,29.86,WNW,291,17.0,26.0,61,0.00,,,0.00,weatherlink.com 1.10,2013-01-29 17:40:00,
2013-01-29 10:56:00,33.1,28.0,29.86,West,259,4.0,19.0,80,0.00,,,0.00,weatherlink.com 1.10,2013-01-29 17:56:00,
2013-01-29 11:11:00,34.2,29.0,29.85,WSW,255,6.0,15.0,82,0.00,,,0.00,weatherlink.com 1.10,2013-01-29 18:11:00,
2013-01-29 11:26:00,36.0,22.0,29.86,WNW,284,17.0,29.0,57,0.00,,,0.00,weatherlink.com 1.10,2013-01-29 18:26:00,
2013-01-29 11:41:00,36.8,20.0,29.85,West,266,7.0,24.0,51,0.00,,,0.00,weatherlink.com 1.10,2013-01-29 18:41:00,
2013-01-29 11:56:00,37.1,17.0,29.85,WNW,291,15.0,26.0,45,0.00,,,0.00,weatherlink.com 1.10,2013-01-29 18:56:00,
2013-01-29 12:11:00,38.3,18.0,29.85,West,276,8.0,26.0,44,0.00,,,0.00,weatherlink.com 1.10,2013-01-29 19:11:00,
2013-01-29 12:26:00,38.4,16.0,29.84,WNW,285,16.0,26.0,41,0.00,,,0.00,weatherlink.com 1.10,2013-01-29 19:26:00,
2013-01-29 12:41:00,39.0,16.0,29.84,NW,317,12.0,31.0,39,0.00,,,0.00,weatherlink.com 1.10,2013-01-29 19:41:00,
2013-01-29 12:56:00,39.6,13.0,29.84,WNW,300,9.0,28.0,34,0.00,,,0.00,weatherlink.com 1.10,2013-01-29 19:56:00,
2013-01-29 13:11:00,39.3,14.0,29.83,NW,307,16.0,27.0,35,0.00,,,0.00,weatherlink.com 1.10,2013-01-29 20:11:00,
2013-01-29 13:26:00,39.6,14.0,29.84,WNW,300,10.0,24.0,35,0.00,,,0.00,weatherlink.com 1.10,2013-01-29 20:26:00,
2013-01-29 13:41:00,39.9,13.0,29.84,WNW,297,18.0,33.0,34,0.00,,,0.00,weatherlink.com 1.10,2013-01-29 20:41:00,
2013-01-29 13:56:00,40.2,14.0,29.83,West,263,10.0,30.0,34,0.00,,,0.00,weatherlink.com 1.10,2013-01-29 20:56:00,
2013-01-29 14:11:00,40.1,13.0,29.84,WNW,288,19.0,29.0,33,0.00,,,0.00,weatherlink.com 1.10,2013-01-29 21:11:00,
2013-01-29 14:26:00,40.6,14.0,29.84,WSW,252,22.0,34.0,34,0.00,,,0.00,weatherlink.com 1.10,2013-01-29 21:26:00,
2013-01-29 14:41:00,40.3,13.0,29.84,WNW,302,25.0,32.0,33,0.00,,,0.00,weatherlink.com 1.10,2013-01-29 21:41:00,
2013-01-29 14:56:00,40.5,13.0,29.84,WNW,287,11.0,29.0,33,0.00,,,0.00,weatherlink.com 1.10,2013-01-29 21:56:00,
2013-01-29 15:11:00,41.3,13.0,29.85,WNW,287,10.0,30.0,32,0.00,,,0.00,weatherlink.com 1.10,2013-01-29 22:11:00,
2013-01-29 15:26:00,40.9,13.0,29.85,WNW,288,12.0,26.0,32,0.00,,,0.00,weatherlink.com 1.10,2013-01-29 22:26:00,
2013-01-29 15:41:00,40.6,13.0,29.85,West,280,17.0,30.0,33,0.00,,,0.00,weatherlink.com 1.10,2013-01-29 22:41:00,
2013-01-29 15:56:00,41.2,13.0,29.85,West,259,6.0,28.0,32,0.00,,,0.00,weatherlink.com 1.10,2013-01-29 22:56:00,
2013-01-29 16:11:00,40.4,13.0,29.87,WNW,294,20.0,30.0,32,0.00,,,0.00,weatherlink.com 1.10,2013-01-29 23:11:00,
2013-01-29 16:41:00,40.4,13.0,29.86,WNW,291,11.0,24.0,33,0.00,,,0.00,weatherlink.com 1.10,2013-01-29 23:41:00,
2013-01-29 16:56:00,40.6,14.0,29.86,NNW,330,8.0,21.0,34,0.00,,,0.00,weatherlink.com 1.10,2013-01-29 23:56:00,
2013-01-29 17:11:00,39.8,13.0,29.88,West,271,10.0,26.0,33,0.00,,,0.00,weatherlink.com 1.10,2013-01-30 00:11:00,
2013-01-29 17:26:00,39.2,13.0,29.88,WNW,300,7.0,24.0,34,0.00,,,0.00,weatherlink.com 1.10,2013-01-30 00:26:00,
2013-01-29 17:41:00,38.7,13.0,29.89,WNW,301,12.0,27.0,35,0.00,,,0.00,weatherlink.com 1.10,2013-01-30 00:41:00,
2013-01-29 17:57:00,38.5,13.0,29.89,WNW,301,10.0,22.0,35,0.00,,,0.00,weatherlink.com 1.10,2013-01-30 00:57:00,
2013-01-29 18:11:00,38.3,13.0,29.90,NNE,16,12.0,24.0,35,0.00,,,0.00,weatherlink.com 1.10,2013-01-30 01:11:00,
2013-01-29 18:27:00,38.1,12.0,29.92,WNW,301,10.0,22.0,34,0.00,,,0.00,weatherlink.com 1.10,2013-01-30 01:27:00,
2013-01-29 18:41:00,37.8,12.0,29.93,NW,307,13.0,20.0,35,0.00,,,0.00,weatherlink.com 1.10,2013-01-30 01:41:00,
2013-01-29 18:57:00,37.5,13.0,29.94,WSW,257,6.0,21.0,36,0.00,,,0.00,weatherlink.com 1.10,2013-01-30 01:57:00,
2013-01-29 19:11:00,37.1,12.0,29.95,WNW,302,7.0,17.0,36,0.00,,,0.00,weatherlink.com 1.10,2013-01-30 02:11:00,
2013-01-29 19:26:00,36.8,13.0,29.97,NNW,345,7.0,16.0,37,0.00,,,0.00,weatherlink.com 1.10,2013-01-30 02:26:00,
2013-01-29 19:41:00,36.8,13.0,29.98,WSW,255,8.0,17.0,37,0.00,,,0.00,weatherlink.com 1.10,2013-01-30 02:41:00,
2013-01-29 19:58:00,36.5,13.0,29.99,NW,310,9.0,15.0,38,0.00,,,0.00,weatherlink.com 1.10,2013-01-30 02:58:00,
2013-01-29 20:12:00,36.3,13.0,30.00,NW,314,4.0,11.0,39,0.00,,,0.00,weatherlink.com 1.10,2013-01-30 03:12:00,
2013-01-29 20:27:00,36.1,14.0,30.00,NNW,328,5.0,14.0,40,0.00,,,0.00,weatherlink.com 1.10,2013-01-30 03:27:00,
2013-01-29 20:42:00,35.7,14.0,30.01,NNE,25,8.0,10.0,41,0.00,,,0.00,weatherlink.com 1.10,2013-01-30 03:42:00,
2013-01-29 20:57:00,34.9,14.0,30.02,NNW,343,8.0,11.0,43,0.00,,,0.00,weatherlink.com 1.10,2013-01-30 03:57:00,
2013-01-29 21:12:00,34.5,15.0,30.03,NNW,330,2.0,13.0,45,0.00,,,0.00,weatherlink.com 1.10,2013-01-30 04:12:00,
2013-01-29 21:29:00,34.0,15.0,30.04,NNW,339,5.0,7.0,46,0.00,,,0.00,weatherlink.com 1.10,2013-01-30 04:29:00,
2013-01-29 21:42:00,34.8,15.0,30.04,WNW,300,3.0,16.0,45,0.00,,,0.00,weatherlink.com 1.10,2013-01-30 04:42:00,
2013-01-29 21:57:00,34.4,15.0,30.04,NNW,344,6.0,10.0,46,0.00,,,0.00,weatherlink.com 1.10,2013-01-30 04:57:00,
2013-01-29 22:12:00,33.7,15.0,30.05,North,355,10.0,10.0,47,0.00,,,0.00,weatherlink.com 1.10,2013-01-30 05:12:00,
2013-01-29 22:27:00,33.8,16.0,30.06,North,349,6.0,10.0,48,0.00,,,0.00,weatherlink.com 1.10,2013-01-30 05:27:00,
2013-01-29 22:42:00,33.8,16.0,30.06,North,357,7.0,12.0,48,0.00,,,0.00,weatherlink.com 1.10,2013-01-30 05:42:00,
2013-01-29 22:57:00,33.8,16.0,30.07,North,356,8.0,10.0,48,0.00,,,0.00,weatherlink.com 1.10,2013-01-30 05:57:00,
2013-01-29 23:12:00,33.9,16.0,30.07,NNW,345,6.0,8.0,49,0.00,,,0.00,weatherlink.com 1.10,2013-01-30 06:12:00,
2013-01-29 23:27:00,33.9,16.0,30.08,NNW,333,2.0,11.0,49,0.00,,,0.00,weatherlink.com 1.10,2013-01-30 06:27:00,
2013-01-29 23:42:00,33.6,17.0,30.08,NNW,344,6.0,9.0,50,0.00,,,0.00,weatherlink.com 1.10,2013-01-30 06:42:00,
2013-01-29 23:57:00,33.5,17.0,30.08,NW,322,4.0,10.0,51,0.00,,,0.00,weatherlink.com 1.10,2013-01-30 06:57:00,